sensor_id;sensor_type;location;lat;lon;timestamp;pressure;altitude;pressure_sealevel;temperature;humidity
68193;BME280;55012;47.562;18.414;2023-02-11T00:01:23;100818.13;;;-1.70;100.00
68193;BME280;55012;47.562;18.414;2023-02-11T00:03:49;100818.34;;;-1.72;100.00
68193;BME280;55012;47.562;18.414;2023-02-11T00:06:15;100820.44;;;-1.74;100.00
68193;BME280;55012;47.562;18.414;2023-02-11T00:08:40;100817.97;;;-1.75;100.00
68193;BME280;55012;47.562;18.414;2023-02-11T00:11:06;100814.75;;;-1.77;100.00
68193;BME280;55012;47.562;18.414;2023-02-11T00:13:32;100816.38;;;-1.76;100.00
68193;BME280;55012;47.562;18.414;2023-02-11T00:15:57;100817.63;;;-1.79;100.00
68193;BME280;55012;47.562;18.414;2023-02-11T00:18:23;100813.38;;;-1.80;100.00
68193;BME280;55012;47.562;18.414;2023-02-11T00:20:48;100804.81;;;-1.82;100.00
68193;BME280;55012;47.562;18.414;2023-02-11T00:23:14;100806.28;;;-1.86;100.00
68193;BME280;55012;47.562;18.414;2023-02-11T00:25:41;100812.19;;;-1.84;100.00
68193;BME280;55012;47.562;18.414;2023-02-11T00:28:08;100821.56;;;-1.81;100.00
68193;BME280;55012;47.562;18.414;2023-02-11T00:30:34;100831.78;;;-1.85;100.00
68193;BME280;55012;47.562;18.414;2023-02-11T00:32:59;100834.44;;;-1.85;100.00
68193;BME280;55012;47.562;18.414;2023-02-11T00:35:25;100840.31;;;-1.83;100.00
68193;BME280;55012;47.562;18.414;2023-02-11T00:37:52;100838.69;;;-1.84;100.00
68193;BME280;55012;47.562;18.414;2023-02-11T00:40:18;100842.38;;;-1.85;100.00
68193;BME280;55012;47.562;18.414;2023-02-11T00:42:44;100841.34;;;-1.84;100.00
68193;BME280;55012;47.562;18.414;2023-02-11T00:45:09;100841.81;;;-1.87;100.00
68193;BME280;55012;47.562;18.414;2023-02-11T00:47:35;100832.81;;;-1.86;100.00
68193;BME280;55012;47.562;18.414;2023-02-11T00:50:01;100841.66;;;-1.92;100.00
68193;BME280;55012;47.562;18.414;2023-02-11T00:52:30;100841.44;;;-1.90;100.00
68193;BME280;55012;47.562;18.414;2023-02-11T00:54:55;100837.53;;;-1.88;100.00
68193;BME280;55012;47.562;18.414;2023-02-11T00:57:21;100832.25;;;-1.88;100.00
68193;BME280;55012;47.562;18.414;2023-02-11T00:59:46;100833.63;;;-1.85;100.00
68193;BME280;55012;47.562;18.414;2023-02-11T01:02:12;100838.13;;;-1.86;100.00
68193;BME280;55012;47.562;18.414;2023-02-11T01:04:37;100833.03;;;-1.87;100.00
68193;BME280;55012;47.562;18.414;2023-02-11T01:07:03;100839.75;;;-1.85;100.00
68193;BME280;55012;47.562;18.414;2023-02-11T01:09:28;100832.00;;;-1.86;100.00
68193;BME280;55012;47.562;18.414;2023-02-11T01:11:53;100825.31;;;-1.89;100.00
68193;BME280;55012;47.562;18.414;2023-02-11T01:14:19;100816.97;;;-1.92;100.00
68193;BME280;55012;47.562;18.414;2023-02-11T01:16:44;100823.31;;;-1.93;100.00
68193;BME280;55012;47.562;18.414;2023-02-11T01:19:10;100817.91;;;-1.99;100.00
68193;BME280;55012;47.562;18.414;2023-02-11T01:21:35;100815.25;;;-1.99;100.00
68193;BME280;55012;47.562;18.414;2023-02-11T01:24:01;100810.53;;;-1.96;100.00
68193;BME280;55012;47.562;18.414;2023-02-11T01:26:26;100813.72;;;-2.06;100.00
68193;BME280;55012;47.562;18.414;2023-02-11T01:28:52;100804.56;;;-2.10;100.00
68193;BME280;55012;47.562;18.414;2023-02-11T01:31:17;100800.53;;;-2.13;100.00
68193;BME280;55012;47.562;18.414;2023-02-11T01:33:43;100793.38;;;-2.12;100.00
68193;BME280;55012;47.562;18.414;2023-02-11T01:36:10;100788.06;;;-2.12;100.00
68193;BME280;55012;47.562;18.414;2023-02-11T01:38:36;100793.38;;;-2.12;100.00
68193;BME280;55012;47.562;18.414;2023-02-11T01:41:04;100795.56;;;-2.09;100.00
68193;BME280;55012;47.562;18.414;2023-02-11T01:43:33;100804.94;;;-2.07;100.00
68193;BME280;55012;47.562;18.414;2023-02-11T01:46:32;100812.75;;;-2.12;100.00
68193;BME280;55012;47.562;18.414;2023-02-11T01:49:08;100806.63;;;-2.12;100.00
68193;BME280;55012;47.562;18.414;2023-02-11T01:51:39;100823.63;;;-2.02;100.00
68193;BME280;55012;47.562;18.414;2023-02-11T01:54:08;100828.69;;;-2.00;100.00
68193;BME280;55012;47.562;18.414;2023-02-11T01:56:55;100838.28;;;-1.99;100.00
68193;BME280;55012;47.562;18.414;2023-02-11T02:05:30;100848.69;;;-1.98;100.00
68193;BME280;55012;47.562;18.414;2023-02-11T02:11:01;100857.69;;;-1.99;100.00
68193;BME280;55012;47.562;18.414;2023-02-11T02:13:29;100864.94;;;-1.94;100.00
68193;BME280;55012;47.562;18.414;2023-02-11T02:15:57;100863.19;;;-2.00;100.00
68193;BME280;55012;47.562;18.414;2023-02-11T02:38:15;100846.94;;;-2.22;100.00
68193;BME280;55012;47.562;18.414;2023-02-11T02:40:53;100857.66;;;-2.17;100.00
68193;BME280;55012;47.562;18.414;2023-02-11T02:43:22;100851.63;;;-2.24;100.00
68193;BME280;55012;47.562;18.414;2023-02-11T02:45:48;100858.16;;;-2.27;100.00
68193;BME280;55012;47.562;18.414;2023-02-11T02:48:43;100847.94;;;-2.41;100.00
68193;BME280;55012;47.562;18.414;2023-02-11T02:54:22;100818.72;;;-2.53;100.00
68193;BME280;55012;47.562;18.414;2023-02-11T02:56:56;100807.88;;;-2.51;100.00
68193;BME280;55012;47.562;18.414;2023-02-11T03:02:35;100807.00;;;-2.45;100.00
68193;BME280;55012;47.562;18.414;2023-02-11T03:10:35;100809.72;;;-2.34;100.00
68193;BME280;55012;47.562;18.414;2023-02-11T03:13:03;100804.88;;;-2.37;100.00
68193;BME280;55012;47.562;18.414;2023-02-11T03:15:33;100813.41;;;-2.35;100.00
68193;BME280;55012;47.562;18.414;2023-02-11T03:18:02;100814.78;;;-2.32;100.00
68193;BME280;55012;47.562;18.414;2023-02-11T03:20:32;100818.72;;;-2.35;100.00
68193;BME280;55012;47.562;18.414;2023-02-11T03:23:07;100815.69;;;-2.38;100.00
68193;BME280;55012;47.562;18.414;2023-02-11T03:25:44;100817.03;;;-2.47;100.00
68193;BME280;55012;47.562;18.414;2023-02-11T03:30:50;100790.38;;;-2.52;100.00
68193;BME280;55012;47.562;18.414;2023-02-11T03:33:26;100785.66;;;-2.50;100.00
68193;BME280;55012;47.562;18.414;2023-02-11T03:35:56;100784.44;;;-2.48;100.00
68193;BME280;55012;47.562;18.414;2023-02-11T03:38:29;100782.94;;;-2.44;100.00
68193;BME280;55012;47.562;18.414;2023-02-11T03:40:57;100779.94;;;-2.47;100.00
68193;BME280;55012;47.562;18.414;2023-02-11T03:43:38;100781.84;;;-2.55;100.00
68193;BME280;55012;47.562;18.414;2023-02-11T03:46:05;100776.97;;;-2.58;100.00
68193;BME280;55012;47.562;18.414;2023-02-11T03:48:35;100762.91;;;-2.58;100.00
68193;BME280;55012;47.562;18.414;2023-02-11T03:51:06;100757.03;;;-2.60;100.00
68193;BME280;55012;47.562;18.414;2023-02-11T03:53:32;100744.00;;;-2.62;100.00
68193;BME280;55012;47.562;18.414;2023-02-11T03:56:02;100749.66;;;-2.58;100.00
68193;BME280;55012;47.562;18.414;2023-02-11T03:58:29;100739.06;;;-2.58;100.00
68193;BME280;55012;47.562;18.414;2023-02-11T04:00:54;100735.38;;;-2.57;100.00
68193;BME280;55012;47.562;18.414;2023-02-11T04:03:20;100738.03;;;-2.57;100.00
68193;BME280;55012;47.562;18.414;2023-02-11T04:05:46;100735.19;;;-2.56;100.00
68193;BME280;55012;47.562;18.414;2023-02-11T04:08:11;100722.94;;;-2.57;100.00
68193;BME280;55012;47.562;18.414;2023-02-11T04:10:37;100717.88;;;-2.58;100.00
68193;BME280;55012;47.562;18.414;2023-02-11T04:13:02;100711.75;;;-2.59;100.00
68193;BME280;55012;47.562;18.414;2023-02-11T04:15:28;100715.84;;;-2.56;100.00
68193;BME280;55012;47.562;18.414;2023-02-11T04:17:53;100714.00;;;-2.56;100.00
68193;BME280;55012;47.562;18.414;2023-02-11T04:20:19;100714.56;;;-2.53;100.00
68193;BME280;55012;47.562;18.414;2023-02-11T04:22:44;100705.59;;;-2.52;100.00
68193;BME280;55012;47.562;18.414;2023-02-11T04:25:10;100711.69;;;-2.52;100.00
68193;BME280;55012;47.562;18.414;2023-02-11T04:27:36;100733.03;;;-2.47;100.00
68193;BME280;55012;47.562;18.414;2023-02-11T04:30:01;100731.28;;;-2.53;100.00
68193;BME280;55012;47.562;18.414;2023-02-11T04:32:27;100739.22;;;-2.53;100.00
68193;BME280;55012;47.562;18.414;2023-02-11T04:34:53;100737.97;;;-2.50;100.00
68193;BME280;55012;47.562;18.414;2023-02-11T04:37:19;100748.34;;;-2.49;100.00
68193;BME280;55012;47.562;18.414;2023-02-11T04:39:45;100745.09;;;-2.51;100.00
68193;BME280;55012;47.562;18.414;2023-02-11T04:42:10;100755.69;;;-2.51;100.00
68193;BME280;55012;47.562;18.414;2023-02-11T04:44:36;100749.81;;;-2.53;100.00
68193;BME280;55012;47.562;18.414;2023-02-11T04:47:02;100750.41;;;-2.51;100.00
68193;BME280;55012;47.562;18.414;2023-02-11T04:49:28;100750.97;;;-2.49;100.00
68193;BME280;55012;47.562;18.414;2023-02-11T04:51:53;100753.63;;;-2.49;100.00
68193;BME280;55012;47.562;18.414;2023-02-11T04:54:19;100757.94;;;-2.48;100.00
68193;BME280;55012;47.562;18.414;2023-02-11T04:56:44;100758.94;;;-2.49;100.00
68193;BME280;55012;47.562;18.414;2023-02-11T04:59:10;100762.19;;;-2.47;100.00
68193;BME280;55012;47.562;18.414;2023-02-11T05:01:37;100767.25;;;-2.45;100.00
68193;BME280;55012;47.562;18.414;2023-02-11T05:04:03;100770.50;;;-2.43;100.00
68193;BME280;55012;47.562;18.414;2023-02-11T05:06:28;100777.69;;;-2.50;100.00
68193;BME280;55012;47.562;18.414;2023-02-11T05:08:54;100780.56;;;-2.52;100.00
68193;BME280;55012;47.562;18.414;2023-02-11T05:11:22;100780.81;;;-2.53;100.00
68193;BME280;55012;47.562;18.414;2023-02-11T05:13:48;100781.03;;;-2.55;100.00
68193;BME280;55012;47.562;18.414;2023-02-11T05:16:14;100786.34;;;-2.55;100.00
68193;BME280;55012;47.562;18.414;2023-02-11T05:18:41;100785.13;;;-2.59;100.00
68193;BME280;55012;47.562;18.414;2023-02-11T05:21:08;100782.13;;;-2.63;100.00
68193;BME280;55012;47.562;18.414;2023-02-11T05:23:35;100768.06;;;-2.63;100.00
68193;BME280;55012;47.562;18.414;2023-02-11T05:26:01;100754.84;;;-2.63;100.00
68193;BME280;55012;47.562;18.414;2023-02-11T05:28:27;100753.22;;;-2.64;100.00
68193;BME280;55012;47.562;18.414;2023-02-11T05:30:53;100746.50;;;-2.67;100.00
68193;BME280;55012;47.562;18.414;2023-02-11T05:33:19;100742.47;;;-2.69;100.00
68193;BME280;55012;47.562;18.414;2023-02-11T05:35:44;100739.22;;;-2.71;100.00
68193;BME280;55012;47.562;18.414;2023-02-11T05:38:10;100732.66;;;-2.69;100.00
68193;BME280;55012;47.562;18.414;2023-02-11T05:40:36;100734.50;;;-2.69;100.00
68193;BME280;55012;47.562;18.414;2023-02-11T05:43:01;100737.38;;;-2.71;100.00
68193;BME280;55012;47.562;18.414;2023-02-11T05:45:27;100732.50;;;-2.74;100.00
68193;BME280;55012;47.562;18.414;2023-02-11T05:47:52;100737.63;;;-2.72;100.00
68193;BME280;55012;47.562;18.414;2023-02-11T05:50:18;100729.44;;;-2.71;100.00
68193;BME280;55012;47.562;18.414;2023-02-11T05:52:43;100736.72;;;-2.66;100.00
68193;BME280;55012;47.562;18.414;2023-02-11T05:55:09;100746.06;;;-2.64;100.00
68193;BME280;55012;47.562;18.414;2023-02-11T05:57:34;100753.56;;;-2.61;100.00
68193;BME280;55012;47.562;18.414;2023-02-11T06:00:00;100763.13;;;-2.60;100.00
68193;BME280;55012;47.562;18.414;2023-02-11T06:02:25;100761.28;;;-2.59;100.00
68193;BME280;55012;47.562;18.414;2023-02-11T06:04:51;100755.78;;;-2.58;100.00
68193;BME280;55012;47.562;18.414;2023-02-11T06:07:16;100765.25;;;-2.50;100.00
68193;BME280;55012;47.562;18.414;2023-02-11T06:09:43;100768.06;;;-2.45;100.00
68193;BME280;55012;47.562;18.414;2023-02-11T06:12:09;100767.03;;;-2.44;100.00
68193;BME280;55012;47.562;18.414;2023-02-11T06:14:34;100768.66;;;-2.43;100.00
68193;BME280;55012;47.562;18.414;2023-02-11T06:17:00;100779.63;;;-2.39;100.00
68193;BME280;55012;47.562;18.414;2023-02-11T06:19:26;100781.25;;;-2.38;100.00
68193;BME280;55012;47.562;18.414;2023-02-11T06:21:51;100791.16;;;-2.34;100.00
68193;BME280;55012;47.562;18.414;2023-02-11T06:24:17;100786.03;;;-2.29;100.00
68193;BME280;55012;47.562;18.414;2023-02-11T06:26:42;100795.38;;;-2.26;100.00
68193;BME280;55012;47.562;18.414;2023-02-11T06:29:08;100793.69;;;-2.20;100.00
68193;BME280;55012;47.562;18.414;2023-02-11T06:31:35;100789.91;;;-2.13;100.00
68193;BME280;55012;47.562;18.414;2023-02-11T06:34:01;100793.50;;;-2.07;100.00
68193;BME280;55012;47.562;18.414;2023-02-11T06:36:26;100795.25;;;-2.01;100.00
68193;BME280;55012;47.562;18.414;2023-02-11T06:38:52;100800.94;;;-1.98;100.00
68193;BME280;55012;47.562;18.414;2023-02-11T06:41:18;100806.59;;;-1.94;100.00
68193;BME280;55012;47.562;18.414;2023-02-11T06:43:44;100816.91;;;-1.86;100.00
68193;BME280;55012;47.562;18.414;2023-02-11T06:46:10;100819.91;;;-1.82;100.00
68193;BME280;55012;47.562;18.414;2023-02-11T06:48:36;100826.75;;;-1.75;100.00
68193;BME280;55012;47.562;18.414;2023-02-11T06:51:06;100831.97;;;-1.68;100.00
68193;BME280;55012;47.562;18.414;2023-02-11T06:53:37;100829.00;;;-1.60;100.00
68193;BME280;55012;47.562;18.414;2023-02-11T06:56:05;100835.59;;;-1.51;100.00
68193;BME280;55012;47.562;18.414;2023-02-11T06:58:31;100833.44;;;-1.42;100.00
68193;BME280;55012;47.562;18.414;2023-02-11T07:00:57;100837.19;;;-1.31;100.00
68193;BME280;55012;47.562;18.414;2023-02-11T07:03:22;100837.78;;;-1.18;100.00
68193;BME280;55012;47.562;18.414;2023-02-11T07:05:48;100849.81;;;-1.03;100.00
68193;BME280;55012;47.562;18.414;2023-02-11T07:08:13;100855.03;;;-0.85;100.00
68193;BME280;55012;47.562;18.414;2023-02-11T07:10:39;100872.94;;;-0.69;100.00
68193;BME280;55012;47.562;18.414;2023-02-11T07:13:04;100911.91;;;-0.63;100.00
68193;BME280;55012;47.562;18.414;2023-02-11T07:15:30;100919.31;;;-0.53;100.00
68193;BME280;55012;47.562;18.414;2023-02-11T07:17:55;100937.94;;;-0.41;100.00
68193;BME280;55012;47.562;18.414;2023-02-11T07:20:21;100951.47;;;-0.31;100.00
68193;BME280;55012;47.562;18.414;2023-02-11T07:22:46;100980.59;;;-0.24;100.00
68193;BME280;55012;47.562;18.414;2023-02-11T07:25:12;101010.53;;;-0.17;100.00
68193;BME280;55012;47.562;18.414;2023-02-11T07:27:37;101030.22;;;-0.07;100.00
68193;BME280;55012;47.562;18.414;2023-02-11T07:30:04;101059.97;;;0.02;100.00
68193;BME280;55012;47.562;18.414;2023-02-11T07:32:29;101092.94;;;0.01;100.00
68193;BME280;55012;47.562;18.414;2023-02-11T07:34:55;101118.91;;;-0.13;100.00
68193;BME280;55012;47.562;18.414;2023-02-11T07:37:20;101149.53;;;-0.22;100.00
68193;BME280;55012;47.562;18.414;2023-02-11T07:39:45;101167.09;;;-0.33;100.00
68193;BME280;55012;47.562;18.414;2023-02-11T07:42:11;101160.72;;;-0.32;100.00
68193;BME280;55012;47.562;18.414;2023-02-11T07:44:36;101160.28;;;-0.17;100.00
68193;BME280;55012;47.562;18.414;2023-02-11T07:47:02;101153.03;;;-0.10;100.00
68193;BME280;55012;47.562;18.414;2023-02-11T07:49:28;101157.00;;;-0.01;100.00
68193;BME280;55012;47.562;18.414;2023-02-11T07:51:53;101154.69;;;0.03;100.00
68193;BME280;55012;47.562;18.414;2023-02-11T07:54:19;101153.91;;;0.03;100.00
68193;BME280;55012;47.562;18.414;2023-02-11T07:56:44;101161.16;;;-0.05;100.00
68193;BME280;55012;47.562;18.414;2023-02-11T07:59:10;101161.81;;;-0.09;100.00
68193;BME280;55012;47.562;18.414;2023-02-11T08:01:35;101155.59;;;-0.15;100.00
68193;BME280;55012;47.562;18.414;2023-02-11T08:04:01;101162.25;;;-0.24;100.00
68193;BME280;55012;47.562;18.414;2023-02-11T08:06:30;101157.84;;;-0.30;100.00
68193;BME280;55012;47.562;18.414;2023-02-11T08:08:56;101152.38;;;-0.35;100.00
68193;BME280;55012;47.562;18.414;2023-02-11T08:11:24;101143.47;;;-0.41;100.00
68193;BME280;55012;47.562;18.414;2023-02-11T08:13:50;101130.59;;;-0.44;100.00
68193;BME280;55012;47.562;18.414;2023-02-11T08:16:44;101122.63;;;-0.44;100.00
68193;BME280;55012;47.562;18.414;2023-02-11T08:19:12;101122.88;;;-0.45;100.00
68193;BME280;55012;47.562;18.414;2023-02-11T08:21:41;101117.91;;;-0.42;100.00
68193;BME280;55012;47.562;18.414;2023-02-11T08:24:07;101114.56;;;-0.37;100.00
68193;BME280;55012;47.562;18.414;2023-02-11T08:26:34;101113.78;;;-0.26;100.00
68193;BME280;55012;47.562;18.414;2023-02-11T08:29:01;101105.63;;;-0.13;100.00
68193;BME280;55012;47.562;18.414;2023-02-11T08:31:30;101098.94;;;0.08;100.00
68193;BME280;55012;47.562;18.414;2023-02-11T08:33:57;101096.28;;;0.32;100.00
68193;BME280;55012;47.562;18.414;2023-02-11T08:36:25;101106.72;;;0.56;100.00
68193;BME280;55012;47.562;18.414;2023-02-11T08:38:54;101119.31;;;0.73;100.00
68193;BME280;55012;47.562;18.414;2023-02-11T08:41:20;101132.88;;;0.83;100.00
68193;BME280;55012;47.562;18.414;2023-02-11T08:43:45;101138.31;;;1.00;100.00
68193;BME280;55012;47.562;18.414;2023-02-11T08:46:13;101144.41;;;1.12;100.00
68193;BME280;55012;47.562;18.414;2023-02-11T08:48:39;101162.47;;;1.22;100.00
68193;BME280;55012;47.562;18.414;2023-02-11T08:51:06;101161.19;;;1.24;100.00
68193;BME280;55012;47.562;18.414;2023-02-11T08:53:33;101154.56;;;1.27;100.00
68193;BME280;55012;47.562;18.414;2023-02-11T08:55:58;101148.63;;;1.36;100.00
68193;BME280;55012;47.562;18.414;2023-02-11T08:58:24;101138.81;;;1.54;100.00
68193;BME280;55012;47.562;18.414;2023-02-11T09:00:49;101143.97;;;1.72;100.00
68193;BME280;55012;47.562;18.414;2023-02-11T09:03:16;101143.69;;;1.85;100.00
68193;BME280;55012;47.562;18.414;2023-02-11T09:05:47;101145.84;;;1.88;100.00
68193;BME280;55012;47.562;18.414;2023-02-11T09:08:14;101154.34;;;1.85;100.00
68193;BME280;55012;47.562;18.414;2023-02-11T09:10:41;101151.94;;;1.84;100.00
68193;BME280;55012;47.562;18.414;2023-02-11T09:13:07;101144.06;;;1.77;100.00
68193;BME280;55012;47.562;18.414;2023-02-11T09:15:33;101148.91;;;1.80;100.00
68193;BME280;55012;47.562;18.414;2023-02-11T09:17:59;101137.53;;;1.85;100.00
68193;BME280;55012;47.562;18.414;2023-02-11T09:20:25;101131.25;;;1.91;100.00
68193;BME280;55012;47.562;18.414;2023-02-11T09:22:52;101118.91;;;1.90;100.00
68193;BME280;55012;47.562;18.414;2023-02-11T09:25:17;101110.41;;;1.59;100.00
68193;BME280;55012;47.562;18.414;2023-02-11T09:27:43;101081.59;;;1.45;100.00
68193;BME280;55012;47.562;18.414;2023-02-11T09:30:09;101080.44;;;1.40;100.00
68193;BME280;55012;47.562;18.414;2023-02-11T09:32:34;101054.16;;;1.32;100.00
68193;BME280;55012;47.562;18.414;2023-02-11T09:35:00;101034.38;;;1.28;100.00
68193;BME280;55012;47.562;18.414;2023-02-11T09:37:25;101024.59;;;1.34;100.00
68193;BME280;55012;47.562;18.414;2023-02-11T09:39:51;101005.44;;;1.37;100.00
68193;BME280;55012;47.562;18.414;2023-02-11T09:45:09;100991.56;;;1.35;100.00
68193;BME280;55012;47.562;18.414;2023-02-11T09:47:44;100992.69;;;1.39;100.00
68193;BME280;55012;47.562;18.414;2023-02-11T09:50:15;100983.88;;;1.38;100.00
68193;BME280;55012;47.562;18.414;2023-02-11T09:52:54;100994.09;;;1.58;100.00
68193;BME280;55012;47.562;18.414;2023-02-11T09:57:51;101002.25;;;1.68;100.00
68193;BME280;55012;47.562;18.414;2023-02-11T10:00:21;100990.84;;;1.73;100.00
68193;BME280;55012;47.562;18.414;2023-02-11T10:03:10;100980.09;;;1.85;100.00
68193;BME280;55012;47.562;18.414;2023-02-11T10:06:00;100978.94;;;1.97;100.00
68193;BME280;55012;47.562;18.414;2023-02-11T10:09:01;100976.50;;;1.96;100.00
68193;BME280;55012;47.562;18.414;2023-02-11T10:11:46;100951.25;;;2.04;100.00
68193;BME280;55012;47.562;18.414;2023-02-11T10:22:18;100908.53;;;2.69;100.00
68193;BME280;55012;47.562;18.414;2023-02-11T10:24:53;100938.38;;;2.88;100.00
68193;BME280;55012;47.562;18.414;2023-02-11T10:27:30;100969.31;;;3.06;100.00
68193;BME280;55012;47.562;18.414;2023-02-11T10:30:21;101009.28;;;3.18;100.00
68193;BME280;55012;47.562;18.414;2023-02-11T10:32:48;101027.56;;;3.26;100.00
68193;BME280;55012;47.562;18.414;2023-02-11T10:35:19;101046.06;;;3.32;100.00
68193;BME280;55012;47.562;18.414;2023-02-11T10:37:46;101075.84;;;3.41;100.00
68193;BME280;55012;47.562;18.414;2023-02-11T10:40:17;101111.28;;;3.53;100.00
68193;BME280;55012;47.562;18.414;2023-02-11T10:42:48;101128.94;;;3.54;100.00
68193;BME280;55012;47.562;18.414;2023-02-11T10:45:23;101131.19;;;3.62;100.00
68193;BME280;55012;47.562;18.414;2023-02-11T10:47:49;101111.50;;;3.74;100.00
68193;BME280;55012;47.562;18.414;2023-02-11T10:50:23;101112.78;;;3.66;100.00
68193;BME280;55012;47.562;18.414;2023-02-11T10:52:49;101104.22;;;3.69;100.00
68193;BME280;55012;47.562;18.414;2023-02-11T10:55:20;101115.28;;;3.78;100.00
68193;BME280;55012;47.562;18.414;2023-02-11T10:57:49;101109.63;;;3.74;100.00
68193;BME280;55012;47.562;18.414;2023-02-11T11:02:42;101062.97;;;3.65;100.00
68193;BME280;55012;47.562;18.414;2023-02-11T11:05:17;101078.22;;;3.64;100.00
68193;BME280;55012;47.562;18.414;2023-02-11T11:08:04;101075.75;;;3.58;100.00
68193;BME280;55012;47.562;18.414;2023-02-11T11:13:24;101075.91;;;3.73;100.00
68193;BME280;55012;47.562;18.414;2023-02-11T11:16:17;101049.22;;;3.88;100.00
68193;BME280;55012;47.562;18.414;2023-02-11T11:18:45;101060.06;;;4.04;100.00
68193;BME280;55012;47.562;18.414;2023-02-11T11:21:23;101071.91;;;4.08;100.00
68193;BME280;55012;47.562;18.414;2023-02-11T11:23:52;101047.22;;;4.01;100.00
68193;BME280;55012;47.562;18.414;2023-02-11T11:26:19;101043.50;;;4.07;100.00
68193;BME280;55012;47.562;18.414;2023-02-11T11:31:16;101038.28;;;4.27;100.00
68193;BME280;55012;47.562;18.414;2023-02-11T11:33:44;100996.84;;;4.45;100.00
68193;BME280;55012;47.562;18.414;2023-02-11T11:36:13;100995.31;;;4.59;100.00
68193;BME280;55012;47.562;18.414;2023-02-11T11:38:50;101002.56;;;4.69;100.00
68193;BME280;55012;47.562;18.414;2023-02-11T11:43:57;100999.63;;;4.65;100.00
68193;BME280;55012;47.562;18.414;2023-02-11T11:46:29;100991.03;;;4.68;100.00
68193;BME280;55012;47.562;18.414;2023-02-11T11:49:02;100988.09;;;4.70;100.00
68193;BME280;55012;47.562;18.414;2023-02-11T11:51:31;100991.09;;;4.84;100.00
68193;BME280;55012;47.562;18.414;2023-02-11T11:54:02;100984.69;;;4.95;100.00
68193;BME280;55012;47.562;18.414;2023-02-11T11:56:33;100970.22;;;5.01;100.00
68193;BME280;55012;47.562;18.414;2023-02-11T11:59:11;100975.34;;;5.13;100.00
68193;BME280;55012;47.562;18.414;2023-02-11T12:07:09;100946.66;;;5.33;100.00
68193;BME280;55012;47.562;18.414;2023-02-11T12:12:33;100920.34;;;5.61;100.00
68193;BME280;55012;47.562;18.414;2023-02-11T12:15:13;100916.59;;;5.67;100.00
68193;BME280;55012;47.562;18.414;2023-02-11T12:20:22;100894.84;;;5.69;100.00
68193;BME280;55012;47.562;18.414;2023-02-11T12:25:50;100918.22;;;5.53;100.00
68193;BME280;55012;47.562;18.414;2023-02-11T12:28:33;100911.00;;;5.38;100.00
68193;BME280;55012;47.562;18.414;2023-02-11T12:31:26;100912.84;;;5.38;100.00
68193;BME280;55012;47.562;18.414;2023-02-11T12:34:30;100882.53;;;5.47;100.00
68193;BME280;55012;47.562;18.414;2023-02-11T12:39:36;100860.72;;;5.74;100.00
68193;BME280;55012;47.562;18.414;2023-02-11T12:50:27;100819.31;;;6.45;100.00
68193;BME280;55012;47.562;18.414;2023-02-11T12:55:33;100831.38;;;6.58;100.00
68193;BME280;55012;47.562;18.414;2023-02-11T12:58:01;100831.59;;;6.61;100.00
68193;BME280;55012;47.562;18.414;2023-02-11T13:00:48;100828.16;;;6.56;100.00
68193;BME280;55012;47.562;18.414;2023-02-11T13:03:43;100819.81;;;6.52;100.00
68193;BME280;55012;47.562;18.414;2023-02-11T13:06:13;100830.66;;;6.42;100.00
68193;BME280;55012;47.562;18.414;2023-02-11T13:08:54;100833.13;;;6.33;100.00
68193;BME280;55012;47.562;18.414;2023-02-11T13:11:36;100835.06;;;6.17;100.00
68193;BME280;55012;47.562;18.414;2023-02-11T13:14:23;100817.41;;;6.06;100.00
68193;BME280;55012;47.562;18.414;2023-02-11T13:16:50;100820.63;;;6.08;100.00
68193;BME280;55012;47.562;18.414;2023-02-11T13:30:12;100813.19;;;5.80;100.00
68193;BME280;55012;47.562;18.414;2023-02-11T13:35:32;100816.09;;;5.94;100.00
68193;BME280;55012;47.562;18.414;2023-02-11T13:37:59;100825.53;;;5.96;100.00
68193;BME280;55012;47.562;18.414;2023-02-11T13:40:32;100831.13;;;6.00;100.00
68193;BME280;55012;47.562;18.414;2023-02-11T13:43:00;100798.63;;;6.01;100.00
68193;BME280;55012;47.562;18.414;2023-02-11T13:45:43;100814.66;;;6.16;100.00
68193;BME280;55012;47.562;18.414;2023-02-11T13:48:31;100799.34;;;6.17;100.00
68193;BME280;55012;47.562;18.414;2023-02-11T13:51:05;100828.91;;;6.17;100.00
68193;BME280;55012;47.562;18.414;2023-02-11T13:53:51;100816.84;;;6.09;100.00
68193;BME280;55012;47.562;18.414;2023-02-11T13:56:39;100801.00;;;6.13;100.00
68193;BME280;55012;47.562;18.414;2023-02-11T14:04:34;100769.91;;;6.41;100.00
68193;BME280;55012;47.562;18.414;2023-02-11T14:07:27;100809.72;;;6.39;100.00
68193;BME280;55012;47.562;18.414;2023-02-11T14:15:44;100798.03;;;6.14;100.00
68193;BME280;55012;47.562;18.414;2023-02-11T14:18:36;100828.09;;;6.16;100.00
68193;BME280;55012;47.562;18.414;2023-02-11T14:21:12;100825.69;;;6.15;100.00
68193;BME280;55012;47.562;18.414;2023-02-11T14:23:39;100831.94;;;6.05;100.00
68193;BME280;55012;47.562;18.414;2023-02-11T14:28:56;100828.19;;;5.96;100.00
68193;BME280;55012;47.562;18.414;2023-02-11T14:39:47;100823.72;;;5.46;100.00
68193;BME280;55012;47.562;18.414;2023-02-11T14:42:22;100811.94;;;5.36;100.00
68193;BME280;55012;47.562;18.414;2023-02-11T14:44:52;100826.47;;;5.25;100.00
68193;BME280;55012;47.562;18.414;2023-02-11T14:47:28;100824.31;;;5.22;100.00
68193;BME280;55012;47.562;18.414;2023-02-11T14:49:54;100821.38;;;5.19;100.00
68193;BME280;55012;47.562;18.414;2023-02-11T14:52:28;100858.66;;;5.20;100.00
68193;BME280;55012;47.562;18.414;2023-02-11T14:57:40;100808.47;;;5.21;100.00